Time;durP1;ratioP1;P1;durP2;ratioP2;P2;SDS_P1;SDS_P2;PMS_P1;PMS_P2;Temp;Humidity;BMP_temperature;BMP_pressure;BME280_temperature;BME280_humidity;BME280_pressure;Samples;Min_cycle;Max_cycle;Signal;HPM_P1;HPM_P2
2023/07/16 00:00:53;;;;;;;;;;;;;;;;;;5152876;27;19908;-70
2023/07/16 00:04:42;;;;;;;;;;;;;;;;;;5152696;27;20286;-70
2023/07/16 00:07:10;;;;;;;;;;;;;;;;;;5152994;27;19980;-70
2023/07/16 00:09:36;;;;;;;;;;;;;;;;;;5134289;27;19920;-71
2023/07/16 00:13:31;;;;;;;;;;;;;;;;;;5153504;27;20010;-70
2023/07/16 00:15:57;;;;;;;;;;;;;;;;;;5153222;27;20367;-72
2023/07/16 00:18:23;;;;;;;;;;;;;;;;;;5152396;27;20006;-71
2023/07/16 00:22:19;;;;;;;;;;;;;;;;;;5112471;27;19912;-70
2023/07/16 00:24:46;;;;;;;;;;;;;;;;;;5111598;28;19991;-71
2023/07/16 00:27:12;;;;;;;;;;;;;;;;;;5110415;28;20375;-71
2023/07/16 00:30:03;;;;;;;;;;;;;;;;;;5112595;27;19916;-71
2023/07/16 00:33:24;;;;;;;;;;;;;;;;;;5111412;27;19922;-71
2023/07/16 00:35:50;;;;;;;;;;;;;;;;;;5111741;28;19999;-71
2023/07/16 00:41:12;;;;;;;;;;;;;;;;;;5112269;27;19916;-70
2023/07/16 00:51:41;;;;;;;;;;;;;;;;;;5153091;27;20006;-70
2023/07/16 00:54:07;;;;;;;;;;;;;;;;;;5152547;27;20387;-70
2023/07/16 00:56:33;;;;;;;;;;;;;;;;;;5152979;27;19908;-70
2023/07/16 01:02:16;;;;;;;;;;;;;;;;;;5112237;27;19924;-70
2023/07/16 01:04:42;;;;;;;;;;;;;;;;;;5111789;28;20350;-71
2023/07/16 01:07:08;;;;;;;;;;;;;;;;;;5111376;28;19939;-71
2023/07/16 01:10:57;;;;;;;;;;;;;;;;;;5153337;27;19932;-70
2023/07/16 01:15:51;;;;;;;;;;;;;;;;;;5112208;27;19912;-71
2023/07/16 01:18:17;;;;;;;;;;;;;;;;;;5111756;28;20002;-71
2023/07/16 01:20:42;;;;;;;;;;;;;;;;;;5109960;28;19953;-71
2023/07/16 01:24:05;;;;;;;;;;;;;;;;;;5153068;27;20286;-70
2023/07/16 01:26:31;;;;;;;;;;;;;;;;;;5153208;27;19972;-70
2023/07/16 01:28:57;;;;;;;;;;;;;;;;;;5152478;27;20364;-70
2023/07/16 01:33:03;;;;;;;;;;;;;;;;;;5153115;27;19922;-71
2023/07/16 01:35:29;;;;;;;;;;;;;;;;;;5152511;27;20286;-71
2023/07/16 01:41:46;;;;;;;;;;;;;;;;;;5111689;27;19916;-70
2023/07/16 01:44:12;;;;;;;;;;;;;;;;;;5112040;28;19957;-71
2023/07/16 01:46:38;;;;;;;;;;;;;;;;;;5111745;28;19908;-70
2023/07/16 01:50:43;;;;;;;;;;;;;;;;;;5111482;27;19916;-70
2023/07/16 01:53:09;;;;;;;;;;;;;;;;;;5111785;28;19951;-70
2023/07/16 01:55:35;;;;;;;;;;;;;;;;;;5111754;28;19931;-70
2023/07/16 01:58:01;;;;;;;;;;;;;;;;;;5110067;28;19911;-70
2023/07/16 02:00:27;;;;;;;;;;;;;;;;;;5111843;28;19908;-70
2023/07/16 02:02:53;;;;;;;;;;;;;;;;;;5111805;28;20359;-71
2023/07/16 02:06:53;;;;;;;;;;;;;;;;;;5111990;27;19915;-70
2023/07/16 02:09:18;;;;;;;;;;;;;;;;;;5111724;28;20011;-70
2023/07/16 02:11:44;;;;;;;;;;;;;;;;;;5109954;28;19962;-71
2023/07/16 02:18:13;;;;;;;;;;;;;;;;;;5111606;27;19916;-71
2023/07/16 02:22:46;;;;;;;;;;;;;;;;;;5091790;27;19913;-70
2023/07/16 02:25:12;;;;;;;;;;;;;;;;;;5090999;28;19917;-70
2023/07/16 02:27:38;;;;;;;;;;;;;;;;;;5090131;28;20356;-71
2023/07/16 02:41:36;;;;;;;;;;;;;;;;;;5111803;27;19919;-70
2023/07/16 02:44:02;;;;;;;;;;;;;;;;;;5111772;28;20002;-71
2023/07/16 02:46:28;;;;;;;;;;;;;;;;;;5111372;28;20436;-71
2023/07/16 02:48:54;;;;;;;;;;;;;;;;;;5111674;28;20394;-70
2023/07/16 02:51:20;;;;;;;;;;;;;;;;;;5111624;28;20003;-70
2023/07/16 02:53:46;;;;;;;;;;;;;;;;;;5111176;28;19908;-70
2023/07/16 02:56:12;;;;;;;;;;;;;;;;;;5111589;28;19912;-71
2023/07/16 02:58:38;;;;;;;;;;;;;;;;;;5111739;28;19908;-70
2023/07/16 03:01:04;;;;;;;;;;;;;;;;;;5111063;28;19927;-70
2023/07/16 03:03:30;;;;;;;;;;;;;;;;;;5110066;28;20033;-70
2023/07/16 03:05:56;;;;;;;;;;;;;;;;;;5111311;28;19921;-71
2023/07/16 03:08:22;;;;;;;;;;;;;;;;;;5110998;28;19938;-70
2023/07/16 03:10:48;;;;;;;;;;;;;;;;;;5111184;28;20402;-70
2023/07/16 03:13:14;;;;;;;;;;;;;;;;;;5110949;28;19912;-70
2023/07/16 03:19:53;;;;;;;;;;;;;;;;;;5153442;27;19994;-70
2023/07/16 03:22:19;;;;;;;;;;;;;;;;;;5152604;27;19954;-71
2023/07/16 03:25:02;;;;;;;;;;;;;;;;;;5092321;28;19919;-70
2023/07/16 03:27:28;;;;;;;;;;;;;;;;;;5091018;28;19999;-71
2023/07/16 03:29:54;;;;;;;;;;;;;;;;;;5091327;28;19959;-70
2023/07/16 03:32:20;;;;;;;;;;;;;;;;;;5091336;28;19908;-70
2023/07/16 03:34:46;;;;;;;;;;;;;;;;;;5089539;28;19963;-71
2023/07/16 03:37:12;;;;;;;;;;;;;;;;;;5091205;28;19916;-71
2023/07/16 03:41:51;;;;;;;;;;;;;;;;;;5111742;27;20291;-71
2023/07/16 03:47:10;;;;;;;;;;;;;;;;;;5112346;27;19916;-71
2023/07/16 03:51:17;;;;;;;;;;;;;;;;;;5071425;28;19916;-71
2023/07/16 03:58:47;;;;;;;;;;;;;;;;;;5112561;27;20387;-70
2023/07/16 04:01:13;;;;;;;;;;;;;;;;;;5111785;28;20010;-70
2023/07/16 04:03:39;;;;;;;;;;;;;;;;;;5109988;28;19908;-70
2023/07/16 04:09:43;;;;;;;;;;;;;;;;;;5111462;27;19919;-70
2023/07/16 04:12:54;;;;;;;;;;;;;;;;;;5111818;27;20379;-70
2023/07/16 04:15:20;;;;;;;;;;;;;;;;;;5112006;28;20003;-70
2023/07/16 04:17:46;;;;;;;;;;;;;;;;;;5111486;28;20326;-70
2023/07/16 04:20:12;;;;;;;;;;;;;;;;;;5111658;28;19908;-70
2023/07/16 04:23:37;;;;;;;;;;;;;;;;;;5111898;27;19922;-70
2023/07/16 04:26:03;;;;;;;;;;;;;;;;;;5111666;28;20011;-71
2023/07/16 04:28:29;;;;;;;;;;;;;;;;;;5111786;28;19908;-70
2023/07/16 04:30:55;;;;;;;;;;;;;;;;;;5111210;28;19908;-71
2023/07/16 04:33:21;;;;;;;;;;;;;;;;;;5110274;28;19908;-71
2023/07/16 04:35:47;;;;;;;;;;;;;;;;;;5111592;28;19955;-71
2023/07/16 04:39:51;;;;;;;;;;;;;;;;;;5152918;27;20017;-71
2023/07/16 04:42:17;;;;;;;;;;;;;;;;;;5152937;27;20386;-71
2023/07/16 04:44:43;;;;;;;;;;;;;;;;;;5152661;27;19908;-70
2023/07/16 04:48:36;;;;;;;;;;;;;;;;;;5112001;27;19916;-70
2023/07/16 04:51:02;;;;;;;;;;;;;;;;;;5111780;28;20351;-70
2023/07/16 04:53:28;;;;;;;;;;;;;;;;;;5111297;28;19912;-70
2023/07/16 04:55:54;;;;;;;;;;;;;;;;;;5111654;28;19912;-70
2023/07/16 05:01:51;;;;;;;;;;;;;;;;;;5153571;27;20014;-70
2023/07/16 05:09:26;;;;;;;;;;;;;;;;;;5091648;27;19913;-70
2023/07/16 05:11:52;;;;;;;;;;;;;;;;;;5091373;28;20010;-70
2023/07/16 05:14:17;;;;;;;;;;;;;;;;;;5091015;28;19908;-70
2023/07/16 05:23:28;;;;;;;;;;;;;;;;;;5112419;27;19916;-69
2023/07/16 05:25:54;;;;;;;;;;;;;;;;;;5112057;28;20014;-70
2023/07/16 05:28:20;;;;;;;;;;;;;;;;;;5111260;28;19915;-71
2023/07/16 05:30:45;;;;;;;;;;;;;;;;;;5111734;28;19914;-71
2023/07/16 05:34:24;;;;;;;;;;;;;;;;;;5111960;27;20291;-71
2023/07/16 05:37:04;;;;;;;;;;;;;;;;;;5091494;27;19912;-71
2023/07/16 05:40:52;;;;;;;;;;;;;;;;;;5153067;27;20436;-70
2023/07/16 05:43:18;;;;;;;;;;;;;;;;;;5152878;27;20016;-70
2023/07/16 05:45:44;;;;;;;;;;;;;;;;;;5134357;27;19966;-71
2023/07/16 05:48:10;;;;;;;;;;;;;;;;;;5152466;27;20279;-70
2023/07/16 05:56:26;;;;;;;;;;;;;;;;;;5111590;27;19916;-70
2023/07/16 05:58:52;;;;;;;;;;;;;;;;;;5112060;28;20014;-70
2023/07/16 06:01:18;;;;;;;;;;;;;;;;;;5111620;28;19912;-71
2023/07/16 06:04:32;;;;;;;;;;;;;;;;;;5092277;27;19923;-70
2023/07/16 06:06:58;;;;;;;;;;;;;;;;;;5091477;28;19999;-71
2023/07/16 06:09:24;;;;;;;;;;;;;;;;;;5090967;28;19909;-71
2023/07/16 06:12:14;;;;;;;;;;;;;;;;;;5112199;27;19916;-71
2023/07/16 06:14:40;;;;;;;;;;;;;;;;;;5111788;28;19912;-70
2023/07/16 06:18:25;;;;;;;;;;;;;;;;;;5112135;27;19916;-71
2023/07/16 06:20:52;;;;;;;;;;;;;;;;;;5111773;28;20015;-70
2023/07/16 06:24:30;;;;;;;;;;;;;;;;;;5111669;27;19916;-70
2023/07/16 06:26:55;;;;;;;;;;;;;;;;;;5111774;28;19999;-71
2023/07/16 06:29:21;;;;;;;;;;;;;;;;;;5111910;28;19954;-71
2023/07/16 06:31:47;;;;;;;;;;;;;;;;;;5111261;28;20003;-70
2023/07/16 06:34:13;;;;;;;;;;;;;;;;;;5111610;28;19915;-71
2023/07/16 06:36:39;;;;;;;;;;;;;;;;;;5111520;28;19912;-71
2023/07/16 06:39:05;;;;;;;;;;;;;;;;;;5111132;28;19908;-71
2023/07/16 06:41:32;;;;;;;;;;;;;;;;;;5111427;28;19908;-70
2023/07/16 06:43:58;;;;;;;;;;;;;;;;;;5110013;28;19916;-71
2023/07/16 06:46:23;;;;;;;;;;;;;;;;;;5110945;28;19908;-71
2023/07/16 06:48:49;;;;;;;;;;;;;;;;;;5111259;28;19912;-71
2023/07/16 06:51:54;;;;;;;;;;;;;;;;;;5111394;27;19918;-71
2023/07/16 06:54:19;;;;;;;;;;;;;;;;;;5111985;28;20346;-70
2023/07/16 06:56:45;;;;;;;;;;;;;;;;;;5111713;28;19908;-71
2023/07/16 06:59:11;;;;;;;;;;;;;;;;;;5111295;28;19918;-72
2023/07/16 07:01:37;;;;;;;;;;;;;;;;;;5111555;28;19935;-71
2023/07/16 07:06:21;;;;;;;;;;;;;;;;;;5111730;27;19919;-72
2023/07/16 07:08:47;;;;;;;;;;;;;;;;;;5110445;28;20264;-72
2023/07/16 07:11:13;;;;;;;;;;;;;;;;;;5112104;28;19914;-72
2023/07/16 07:13:39;;;;;;;;;;;;;;;;;;5111384;28;20288;-71
2023/07/16 07:16:05;;;;;;;;;;;;;;;;;;5110314;28;20007;-70
2023/07/16 07:18:31;;;;;;;;;;;;;;;;;;5111529;28;19951;-71
2023/07/16 07:20:57;;;;;;;;;;;;;;;;;;5109747;28;19915;-70
2023/07/16 07:23:23;;;;;;;;;;;;;;;;;;5111505;28;19908;-71
2023/07/16 07:25:50;;;;;;;;;;;;;;;;;;5111363;28;20337;-71
2023/07/16 07:28:16;;;;;;;;;;;;;;;;;;5111035;28;19908;-71
2023/07/16 07:30:41;;;;;;;;;;;;;;;;;;5110000;28;19953;-71
2023/07/16 07:33:07;;;;;;;;;;;;;;;;;;5111260;28;19915;-72
2023/07/16 07:35:33;;;;;;;;;;;;;;;;;;5109537;28;19915;-72
2023/07/16 07:37:59;;;;;;;;;;;;;;;;;;5111207;28;19938;-73
2023/07/16 07:40:25;;;;;;;;;;;;;;;;;;5110720;28;20002;-72
2023/07/16 07:45:22;;;;;;;;;;;;;;;;;;5112558;27;19916;-73
2023/07/16 07:47:48;;;;;;;;;;;;;;;;;;5111296;28;20398;-71
2023/07/16 07:50:14;;;;;;;;;;;;;;;;;;5111636;28;19908;-70
2023/07/16 07:52:40;;;;;;;;;;;;;;;;;;5111640;28;19908;-72
2023/07/16 07:55:06;;;;;;;;;;;;;;;;;;5111353;28;19969;-70
2023/07/16 07:57:32;;;;;;;;;;;;;;;;;;5110305;28;20014;-72
2023/07/16 07:59:58;;;;;;;;;;;;;;;;;;5110280;28;19915;-72
2023/07/16 08:02:24;;;;;;;;;;;;;;;;;;5109798;28;19908;-70
2023/07/16 08:04:50;;;;;;;;;;;;;;;;;;5111402;28;20439;-72
2023/07/16 08:07:16;;;;;;;;;;;;;;;;;;5110080;28;20327;-72
2023/07/16 08:09:42;;;;;;;;;;;;;;;;;;5110864;28;19918;-72
2023/07/16 08:12:08;;;;;;;;;;;;;;;;;;5111040;28;19908;-72
2023/07/16 08:14:34;;;;;;;;;;;;;;;;;;5111199;28;19908;-71
2023/07/16 08:17:00;;;;;;;;;;;;;;;;;;5110801;28;19915;-71
2023/07/16 08:19:26;;;;;;;;;;;;;;;;;;5111133;28;20360;-70
2023/07/16 08:21:51;;;;;;;;;;;;;;;;;;5111484;28;19943;-71
2023/07/16 08:24:17;;;;;;;;;;;;;;;;;;5110569;28;19916;-71
2023/07/16 08:26:43;;;;;;;;;;;;;;;;;;5110981;28;19908;-70
2023/07/16 08:29:09;;;;;;;;;;;;;;;;;;5110942;28;20350;-71
2023/07/16 08:32:17;;;;;;;;;;;;;;;;;;5092184;28;19917;-71
2023/07/16 08:34:43;;;;;;;;;;;;;;;;;;5091404;28;20004;-71
2023/07/16 08:37:09;;;;;;;;;;;;;;;;;;5090928;28;19908;-71
2023/07/16 08:39:35;;;;;;;;;;;;;;;;;;5091276;28;19938;-71
2023/07/16 08:42:01;;;;;;;;;;;;;;;;;;5091166;28;20261;-73
2023/07/16 08:44:27;;;;;;;;;;;;;;;;;;5089548;28;20269;-72
2023/07/16 08:46:53;;;;;;;;;;;;;;;;;;5091173;28;20276;-72
2023/07/16 08:49:19;;;;;;;;;;;;;;;;;;5089813;28;19916;-71
2023/07/16 08:51:45;;;;;;;;;;;;;;;;;;5090546;28;20036;-71
2023/07/16 08:54:11;;;;;;;;;;;;;;;;;;5091157;28;20437;-72
2023/07/16 08:56:37;;;;;;;;;;;;;;;;;;5091025;28;19963;-71
2023/07/16 08:59:03;;;;;;;;;;;;;;;;;;5090654;28;19908;-71
2023/07/16 09:01:29;;;;;;;;;;;;;;;;;;5090857;28;19908;-71
2023/07/16 09:03:55;;;;;;;;;;;;;;;;;;5090822;28;20030;-73
2023/07/16 09:06:21;;;;;;;;;;;;;;;;;;5090641;28;20272;-72
2023/07/16 09:08:47;;;;;;;;;;;;;;;;;;5090657;28;19958;-73
2023/07/16 09:11:13;;;;;;;;;;;;;;;;;;5090611;28;19916;-72
2023/07/16 09:13:39;;;;;;;;;;;;;;;;;;5090355;28;19940;-72
2023/07/16 09:16:05;;;;;;;;;;;;;;;;;;5090594;28;19908;-72
2023/07/16 09:18:31;;;;;;;;;;;;;;;;;;5090540;28;19961;-72
2023/07/16 09:20:57;;;;;;;;;;;;;;;;;;5090202;28;19913;-72
2023/07/16 09:23:23;;;;;;;;;;;;;;;;;;5090480;28;20323;-72
2023/07/16 09:25:49;;;;;;;;;;;;;;;;;;5090010;28;19915;-71
2023/07/16 09:28:15;;;;;;;;;;;;;;;;;;5090344;28;19994;-72
2023/07/16 09:30:41;;;;;;;;;;;;;;;;;;5097604;28;19920;-72
2023/07/16 09:33:07;;;;;;;;;;;;;;;;;;5110237;28;19919;-72
2023/07/16 09:35:33;;;;;;;;;;;;;;;;;;5110951;28;19915;-72
2023/07/16 09:37:59;;;;;;;;;;;;;;;;;;5110542;28;20004;-72
2023/07/16 09:40:25;;;;;;;;;;;;;;;;;;5110036;28;19908;-72
2023/07/16 09:42:51;;;;;;;;;;;;;;;;;;5083021;28;19908;-72
2023/07/16 09:45:17;;;;;;;;;;;;;;;;;;5096903;28;20011;-72
2023/07/16 09:47:43;;;;;;;;;;;;;;;;;;5096409;28;19953;-72
2023/07/16 09:50:09;;;;;;;;;;;;;;;;;;5097077;28;19916;-72
2023/07/16 09:52:35;;;;;;;;;;;;;;;;;;5096772;28;19998;-71
2023/07/16 09:55:01;;;;;;;;;;;;;;;;;;5078009;28;19915;-71
2023/07/16 09:57:27;;;;;;;;;;;;;;;;;;5096552;28;19969;-70
2023/07/16 09:59:53;;;;;;;;;;;;;;;;;;5096549;28;19912;-71
2023/07/16 10:02:19;;;;;;;;;;;;;;;;;;5096089;28;19908;-72
2023/07/16 10:04:44;;;;;;;;;;;;;;;;;;5096381;28;20049;-72
2023/07/16 10:07:10;;;;;;;;;;;;;;;;;;5078278;28;20376;-71
2023/07/16 10:09:36;;;;;;;;;;;;;;;;;;5095924;28;20261;-72
2023/07/16 10:12:02;;;;;;;;;;;;;;;;;;5078073;28;20391;-73
2023/07/16 10:14:28;;;;;;;;;;;;;;;;;;5096553;28;19909;-72
2023/07/16 10:16:54;;;;;;;;;;;;;;;;;;5095898;28;19908;-73
2023/07/16 10:19:20;;;;;;;;;;;;;;;;;;5096205;28;19909;-72
2023/07/16 10:21:46;;;;;;;;;;;;;;;;;;5096077;28;19998;-72
2023/07/16 10:24:12;;;;;;;;;;;;;;;;;;5095579;28;19958;-72
2023/07/16 10:26:38;;;;;;;;;;;;;;;;;;5095934;28;20275;-73
2023/07/16 10:29:04;;;;;;;;;;;;;;;;;;5096003;28;20280;-71
2023/07/16 10:31:30;;;;;;;;;;;;;;;;;;5077184;28;20374;-70
2023/07/16 10:33:56;;;;;;;;;;;;;;;;;;5077667;28;20277;-72
2023/07/16 10:36:22;;;;;;;;;;;;;;;;;;5095470;28;20357;-72
2023/07/16 10:38:48;;;;;;;;;;;;;;;;;;5095975;28;19974;-72
2023/07/16 10:41:14;;;;;;;;;;;;;;;;;;5095700;28;19961;-71
2023/07/16 10:43:40;;;;;;;;;;;;;;;;;;5095291;28;20029;-72
2023/07/16 10:46:05;;;;;;;;;;;;;;;;;;5077452;28;19909;-72
2023/07/16 10:48:31;;;;;;;;;;;;;;;;;;5095529;28;19908;-71
2023/07/16 10:50:57;;;;;;;;;;;;;;;;;;5094977;28;19916;-71
2023/07/16 10:53:23;;;;;;;;;;;;;;;;;;5094858;28;19912;-71
2023/07/16 10:55:49;;;;;;;;;;;;;;;;;;5094982;28;20293;-72
2023/07/16 10:58:15;;;;;;;;;;;;;;;;;;5094950;28;20333;-71
2023/07/16 11:00:41;;;;;;;;;;;;;;;;;;5095247;28;19931;-72
2023/07/16 11:03:08;;;;;;;;;;;;;;;;;;5077030;28;19912;-72
2023/07/16 11:05:34;;;;;;;;;;;;;;;;;;5094912;28;19915;-72
2023/07/16 11:08:00;;;;;;;;;;;;;;;;;;5077033;28;20003;-71
2023/07/16 11:10:26;;;;;;;;;;;;;;;;;;5095129;28;20005;-72
2023/07/16 11:12:52;;;;;;;;;;;;;;;;;;5094819;28;19908;-72
2023/07/16 11:15:18;;;;;;;;;;;;;;;;;;5095035;28;20261;-72
2023/07/16 11:17:44;;;;;;;;;;;;;;;;;;5095055;28;19908;-72
2023/07/16 11:20:10;;;;;;;;;;;;;;;;;;5094622;28;19908;-70
2023/07/16 11:22:36;;;;;;;;;;;;;;;;;;5094900;28;19982;-73
2023/07/16 11:25:02;;;;;;;;;;;;;;;;;;5094893;28;19908;-71
2023/07/16 11:27:28;;;;;;;;;;;;;;;;;;5094553;28;19915;-73
2023/07/16 11:29:54;;;;;;;;;;;;;;;;;;5076355;28;19909;-70
2023/07/16 11:32:20;;;;;;;;;;;;;;;;;;5076548;28;19916;-72
2023/07/16 11:34:49;;;;;;;;;;;;;;;;;;5094319;28;19951;-72
2023/07/16 11:37:15;;;;;;;;;;;;;;;;;;5094642;28;19908;-72
2023/07/16 11:39:41;;;;;;;;;;;;;;;;;;5094185;28;19961;-73
2023/07/16 11:42:07;;;;;;;;;;;;;;;;;;5094599;28;19991;-72
2023/07/16 11:44:32;;;;;;;;;;;;;;;;;;5076396;28;20248;-72
2023/07/16 11:46:58;;;;;;;;;;;;;;;;;;5094118;28;20355;-72
2023/07/16 11:49:24;;;;;;;;;;;;;;;;;;5076224;28;20283;-73
2023/07/16 11:51:50;;;;;;;;;;;;;;;;;;5094447;28;20391;-72
2023/07/16 11:54:16;;;;;;;;;;;;;;;;;;5094021;28;19951;-71
2023/07/16 11:56:42;;;;;;;;;;;;;;;;;;5094462;28;19908;-73
2023/07/16 11:59:08;;;;;;;;;;;;;;;;;;5094287;28;19915;-72
2023/07/16 12:01:34;;;;;;;;;;;;;;;;;;5075729;28;19961;-72
2023/07/16 12:04:00;;;;;;;;;;;;;;;;;;5094262;28;19908;-72
2023/07/16 12:06:26;;;;;;;;;;;;;;;;;;5075844;28;19915;-72
2023/07/16 12:08:52;;;;;;;;;;;;;;;;;;5075595;28;19912;-72
2023/07/16 12:11:18;;;;;;;;;;;;;;;;;;5094072;28;19920;-72
2023/07/16 12:13:44;;;;;;;;;;;;;;;;;;5094151;28;19908;-71
2023/07/16 12:16:09;;;;;;;;;;;;;;;;;;5075531;28;19998;-72
2023/07/16 12:18:35;;;;;;;;;;;;;;;;;;5075859;28;19915;-72
2023/07/16 12:21:01;;;;;;;;;;;;;;;;;;5094083;28;19912;-72
2023/07/16 12:23:27;;;;;;;;;;;;;;;;;;5093645;28;19911;-73
2023/07/16 12:25:53;;;;;;;;;;;;;;;;;;5093962;28;20003;-72
2023/07/16 12:28:19;;;;;;;;;;;;;;;;;;5094014;28;19908;-71
2023/07/16 12:30:45;;;;;;;;;;;;;;;;;;5093381;28;19950;-72
2023/07/16 12:33:11;;;;;;;;;;;;;;;;;;5094090;28;19962;-71
2023/07/16 12:35:37;;;;;;;;;;;;;;;;;;5093931;28;19912;-73
2023/07/16 12:38:03;;;;;;;;;;;;;;;;;;5093534;28;19908;-72
2023/07/16 12:40:29;;;;;;;;;;;;;;;;;;5093923;28;19950;-72
2023/07/16 12:42:55;;;;;;;;;;;;;;;;;;5093425;28;19912;-71
2023/07/16 12:45:21;;;;;;;;;;;;;;;;;;5093804;28;19908;-72
2023/07/16 12:47:47;;;;;;;;;;;;;;;;;;5093772;28;19908;-73
2023/07/16 12:50:12;;;;;;;;;;;;;;;;;;5093263;28;19915;-73
2023/07/16 12:52:38;;;;;;;;;;;;;;;;;;5093703;28;20002;-72
2023/07/16 12:55:04;;;;;;;;;;;;;;;;;;5093701;28;19912;-72
2023/07/16 12:57:32;;;;;;;;;;;;;;;;;;5093303;28;19912;-72
2023/07/16 12:59:58;;;;;;;;;;;;;;;;;;5093800;28;19912;-72
2023/07/16 13:02:24;;;;;;;;;;;;;;;;;;5075434;28;19908;-72
2023/07/16 13:04:50;;;;;;;;;;;;;;;;;;5075077;28;19935;-72
2023/07/16 13:07:16;;;;;;;;;;;;;;;;;;5075604;28;19912;-73
2023/07/16 13:09:41;;;;;;;;;;;;;;;;;;5093578;28;20275;-71
2023/07/16 13:12:07;;;;;;;;;;;;;;;;;;5093128;28;20295;-72
2023/07/16 13:14:33;;;;;;;;;;;;;;;;;;5093611;28;20276;-72
2023/07/16 13:17:01;;;;;;;;;;;;;;;;;;5094057;28;20361;-72
2023/07/16 13:19:27;;;;;;;;;;;;;;;;;;5096989;28;19912;-72
2023/07/16 13:21:53;;;;;;;;;;;;;;;;;;5097246;28;20046;-71
2023/07/16 13:24:19;;;;;;;;;;;;;;;;;;5097224;28;19908;-72
2023/07/16 13:26:45;;;;;;;;;;;;;;;;;;5096811;28;19908;-72
2023/07/16 13:29:10;;;;;;;;;;;;;;;;;;5097069;28;19908;-72
2023/07/16 13:31:36;;;;;;;;;;;;;;;;;;5096698;28;20005;-71
2023/07/16 13:34:02;;;;;;;;;;;;;;;;;;5096688;28;19954;-72
2023/07/16 13:36:28;;;;;;;;;;;;;;;;;;5096999;28;19908;-72
2023/07/16 13:38:54;;;;;;;;;;;;;;;;;;5097059;28;19915;-71
2023/07/16 13:41:20;;;;;;;;;;;;;;;;;;5096733;28;19908;-72
2023/07/16 13:43:46;;;;;;;;;;;;;;;;;;5096820;28;19944;-72
2023/07/16 13:46:12;;;;;;;;;;;;;;;;;;5096418;28;19977;-72
2023/07/16 13:48:39;;;;;;;;;;;;;;;;;;5096792;28;19908;-72
2023/07/16 13:51:05;;;;;;;;;;;;;;;;;;5096628;28;19916;-71
2023/07/16 13:53:31;;;;;;;;;;;;;;;;;;5096125;28;19953;-72
2023/07/16 13:55:57;;;;;;;;;;;;;;;;;;5096544;28;20118;-72
2023/07/16 13:58:23;;;;;;;;;;;;;;;;;;5078706;28;20012;-72
2023/07/16 14:00:49;;;;;;;;;;;;;;;;;;5096217;28;19934;-71
2023/07/16 14:03:15;;;;;;;;;;;;;;;;;;5078392;28;19916;-73
2023/07/16 14:05:40;;;;;;;;;;;;;;;;;;5096308;28;19915;-72
2023/07/16 14:08:08;;;;;;;;;;;;;;;;;;5096022;28;19908;-70
2023/07/16 14:10:34;;;;;;;;;;;;;;;;;;5078086;28;20368;-73
2023/07/16 14:12:59;;;;;;;;;;;;;;;;;;5096021;28;19918;-72
2023/07/16 14:15:26;;;;;;;;;;;;;;;;;;5096147;28;19908;-73
2023/07/16 14:17:52;;;;;;;;;;;;;;;;;;5096217;28;19961;-72
2023/07/16 14:20:18;;;;;;;;;;;;;;;;;;5096122;28;19912;-72
2023/07/16 14:22:43;;;;;;;;;;;;;;;;;;5095716;28;20012;-72
2023/07/16 14:25:09;;;;;;;;;;;;;;;;;;5096095;28;19915;-72
2023/07/16 14:27:35;;;;;;;;;;;;;;;;;;5095991;28;19915;-73
2023/07/16 14:30:01;;;;;;;;;;;;;;;;;;5077099;28;19914;-72
2023/07/16 14:32:28;;;;;;;;;;;;;;;;;;5095985;28;19912;-72
2023/07/16 14:34:54;;;;;;;;;;;;;;;;;;5095913;28;19908;-72
2023/07/16 14:37:20;;;;;;;;;;;;;;;;;;5095525;28;20356;-72
2023/07/16 14:39:46;;;;;;;;;;;;;;;;;;5095937;28;19912;-73
2023/07/16 14:42:12;;;;;;;;;;;;;;;;;;5095747;28;19912;-73
2023/07/16 14:44:38;;;;;;;;;;;;;;;;;;5095289;28;19908;-73
2023/07/16 14:47:04;;;;;;;;;;;;;;;;;;5095556;28;20272;-73
2023/07/16 14:49:30;;;;;;;;;;;;;;;;;;5095113;28;19912;-72
2023/07/16 14:51:56;;;;;;;;;;;;;;;;;;5095452;28;19916;-73
2023/07/16 14:54:22;;;;;;;;;;;;;;;;;;5095772;28;19950;-73
2023/07/16 14:56:48;;;;;;;;;;;;;;;;;;5095041;28;19954;-73
2023/07/16 14:59:14;;;;;;;;;;;;;;;;;;5095520;28;19962;-73
2023/07/16 15:01:40;;;;;;;;;;;;;;;;;;5095299;28;20308;-72
2023/07/16 15:04:06;;;;;;;;;;;;;;;;;;5095217;28;19959;-73
2023/07/16 15:06:32;;;;;;;;;;;;;;;;;;5095255;28;20001;-73
2023/07/16 15:08:58;;;;;;;;;;;;;;;;;;5095228;28;19911;-71
2023/07/16 15:11:24;;;;;;;;;;;;;;;;;;5076583;28;19978;-72
2023/07/16 15:13:50;;;;;;;;;;;;;;;;;;5095257;28;19908;-73
2023/07/16 15:16:16;;;;;;;;;;;;;;;;;;5076908;28;19915;-73
2023/07/16 15:18:43;;;;;;;;;;;;;;;;;;5094828;28;19912;-73
2023/07/16 15:21:08;;;;;;;;;;;;;;;;;;5095008;28;20371;-72
2023/07/16 15:23:34;;;;;;;;;;;;;;;;;;5094983;28;19943;-73
2023/07/16 15:26:00;;;;;;;;;;;;;;;;;;5094539;28;19908;-72
2023/07/16 15:28:26;;;;;;;;;;;;;;;;;;5076608;28;19934;-72
2023/07/16 15:30:52;;;;;;;;;;;;;;;;;;5094512;28;19921;-73
2023/07/16 15:33:18;;;;;;;;;;;;;;;;;;5094479;28;19954;-73
2023/07/16 15:35:44;;;;;;;;;;;;;;;;;;5094766;28;19908;-72
2023/07/16 15:38:10;;;;;;;;;;;;;;;;;;5094835;28;19934;-73
2023/07/16 15:40:36;;;;;;;;;;;;;;;;;;5093865;28;19915;-73
2023/07/16 15:43:02;;;;;;;;;;;;;;;;;;5094806;28;19909;-73
2023/07/16 15:45:28;;;;;;;;;;;;;;;;;;5094546;28;19912;-73
2023/07/16 15:47:58;;;;;;;;;;;;;;;;;;5075989;28;19908;-71
2023/07/16 15:50:24;;;;;;;;;;;;;;;;;;5094406;28;19912;-72
2023/07/16 15:52:49;;;;;;;;;;;;;;;;;;5094072;28;19970;-72
2023/07/16 15:55:15;;;;;;;;;;;;;;;;;;5094419;28;19908;-73
2023/07/16 15:57:41;;;;;;;;;;;;;;;;;;5094367;28;19909;-72
2023/07/16 16:00:13;;;;;;;;;;;;;;;;;;5075808;28;19965;-72
2023/07/16 16:02:39;;;;;;;;;;;;;;;;;;5076174;28;20326;-72
2023/07/16 16:05:05;;;;;;;;;;;;;;;;;;5094402;28;19908;-72
2023/07/16 16:07:32;;;;;;;;;;;;;;;;;;5093894;28;19916;-71
2023/07/16 16:09:58;;;;;;;;;;;;;;;;;;5094567;28;19912;-72
2023/07/16 16:12:24;;;;;;;;;;;;;;;;;;5075907;28;19917;-72
2023/07/16 16:14:50;;;;;;;;;;;;;;;;;;5093600;28;19908;-72
2023/07/16 16:17:17;;;;;;;;;;;;;;;;;;5094001;28;19909;-73
2023/07/16 16:19:43;;;;;;;;;;;;;;;;;;5094050;28;20453;-72
2023/07/16 16:22:09;;;;;;;;;;;;;;;;;;5093549;28;20003;-71
2023/07/16 16:24:35;;;;;;;;;;;;;;;;;;5093962;28;19919;-72
2023/07/16 16:27:01;;;;;;;;;;;;;;;;;;5093924;28;19915;-71
2023/07/16 16:29:27;;;;;;;;;;;;;;;;;;5093417;28;19915;-72
2023/07/16 16:31:53;;;;;;;;;;;;;;;;;;5093693;28;19920;-71
2023/07/16 16:34:19;;;;;;;;;;;;;;;;;;5094106;28;19930;-71
2023/07/16 16:36:45;;;;;;;;;;;;;;;;;;5093621;28;19908;-71
2023/07/16 16:39:10;;;;;;;;;;;;;;;;;;5075749;28;19931;-72
2023/07/16 16:41:36;;;;;;;;;;;;;;;;;;5075639;28;19916;-71
2023/07/16 16:44:03;;;;;;;;;;;;;;;;;;5093516;28;19979;-72
2023/07/16 16:46:29;;;;;;;;;;;;;;;;;;5093802;28;19908;-73
2023/07/16 16:48:57;;;;;;;;;;;;;;;;;;5093402;28;20011;-72
2023/07/16 16:51:23;;;;;;;;;;;;;;;;;;5093708;28;19917;-72
2023/07/16 16:53:49;;;;;;;;;;;;;;;;;;5079040;28;19908;-71
2023/07/16 16:56:15;;;;;;;;;;;;;;;;;;5097323;28;19923;-72
2023/07/16 16:58:41;;;;;;;;;;;;;;;;;;5097899;28;19908;-72
2023/07/16 17:01:07;;;;;;;;;;;;;;;;;;5097669;28;19912;-70
2023/07/16 17:03:33;;;;;;;;;;;;;;;;;;5097328;28;20380;-73
2023/07/16 17:06:00;;;;;;;;;;;;;;;;;;5079412;28;20403;-71
2023/07/16 17:08:26;;;;;;;;;;;;;;;;;;5097725;28;19934;-71
2023/07/16 17:10:52;;;;;;;;;;;;;;;;;;5096990;28;19916;-71
2023/07/16 17:13:17;;;;;;;;;;;;;;;;;;5079296;28;20383;-71
2023/07/16 17:15:43;;;;;;;;;;;;;;;;;;5098025;28;20382;-72
2023/07/16 17:18:09;;;;;;;;;;;;;;;;;;5097003;28;20386;-72
2023/07/16 17:20:35;;;;;;;;;;;;;;;;;;5097362;28;20370;-72
2023/07/16 17:23:01;;;;;;;;;;;;;;;;;;5097347;28;20006;-71
2023/07/16 17:25:27;;;;;;;;;;;;;;;;;;5096786;28;19919;-72
2023/07/16 17:27:53;;;;;;;;;;;;;;;;;;5097242;28;20003;-72
2023/07/16 17:30:19;;;;;;;;;;;;;;;;;;5096927;28;20291;-72
2023/07/16 17:32:46;;;;;;;;;;;;;;;;;;5096763;28;19908;-72
2023/07/16 17:35:11;;;;;;;;;;;;;;;;;;5097340;28;19951;-72
2023/07/16 17:37:37;;;;;;;;;;;;;;;;;;5097229;28;19912;-72
2023/07/16 17:40:04;;;;;;;;;;;;;;;;;;5096530;28;20279;-72
2023/07/16 17:42:29;;;;;;;;;;;;;;;;;;5096879;28;20042;-71
2023/07/16 17:44:55;;;;;;;;;;;;;;;;;;5096892;28;19973;-72
2023/07/16 17:47:22;;;;;;;;;;;;;;;;;;5096405;28;19909;-71
2023/07/16 17:49:48;;;;;;;;;;;;;;;;;;5096817;28;19912;-71
2023/07/16 17:52:14;;;;;;;;;;;;;;;;;;5096803;28;19916;-71
2023/07/16 17:54:42;;;;;;;;;;;;;;;;;;5096727;28;19954;-71
2023/07/16 17:57:08;;;;;;;;;;;;;;;;;;5096720;28;20372;-71
2023/07/16 17:59:34;;;;;;;;;;;;;;;;;;5077899;28;20333;-73
2023/07/16 18:02:00;;;;;;;;;;;;;;;;;;5096697;28;19908;-72
2023/07/16 18:04:25;;;;;;;;;;;;;;;;;;5095997;28;19969;-73
2023/07/16 18:06:51;;;;;;;;;;;;;;;;;;5096234;28;19961;-73
2023/07/16 18:09:17;;;;;;;;;;;;;;;;;;5078255;28;19947;-73
2023/07/16 18:11:44;;;;;;;;;;;;;;;;;;5078082;28;19916;-72
2023/07/16 18:14:19;;;;;;;;;;;;;;;;;;5077758;28;20280;-72
2023/07/16 18:16:45;;;;;;;;;;;;;;;;;;5096647;28;19908;-72
2023/07/16 18:19:11;;;;;;;;;;;;;;;;;;5096208;28;19970;-72
2023/07/16 18:21:37;;;;;;;;;;;;;;;;;;5095431;28;20295;-72
2023/07/16 18:24:03;;;;;;;;;;;;;;;;;;5096026;28;20249;-72
2023/07/16 18:26:29;;;;;;;;;;;;;;;;;;5095890;28;19916;-71